sensor_id;sensor_type;location;lat;lon;timestamp;temperature;humidity
68485;DHT22;55472;50.060;21.960;2022-07-29T00:00:46;17.90;72.00
68485;DHT22;55472;50.060;21.960;2022-07-29T00:03:13;17.90;71.80
68485;DHT22;55472;50.060;21.960;2022-07-29T00:05:40;17.90;71.80
68485;DHT22;55472;50.060;21.960;2022-07-29T00:08:07;17.90;71.70
68485;DHT22;55472;50.060;21.960;2022-07-29T00:10:33;17.90;71.80
68485;DHT22;55472;50.060;21.960;2022-07-29T00:13:00;17.90;72.20
68485;DHT22;55472;50.060;21.960;2022-07-29T00:15:26;17.90;72.10
68485;DHT22;55472;50.060;21.960;2022-07-29T00:17:52;17.90;72.20
68485;DHT22;55472;50.060;21.960;2022-07-29T00:20:18;17.90;72.00
68485;DHT22;55472;50.060;21.960;2022-07-29T00:22:44;17.90;72.00
68485;DHT22;55472;50.060;21.960;2022-07-29T00:25:12;17.90;72.20
68485;DHT22;55472;50.060;21.960;2022-07-29T00:27:38;17.90;72.30
68485;DHT22;55472;50.060;21.960;2022-07-29T00:30:05;17.80;72.40
68485;DHT22;55472;50.060;21.960;2022-07-29T00:32:32;17.80;72.20
68485;DHT22;55472;50.060;21.960;2022-07-29T00:34:58;17.80;72.30
68485;DHT22;55472;50.060;21.960;2022-07-29T00:37:42;17.80;72.00
68485;DHT22;55472;50.060;21.960;2022-07-29T00:40:09;17.70;71.70
68485;DHT22;55472;50.060;21.960;2022-07-29T00:42:46;17.70;71.70
68485;DHT22;55472;50.060;21.960;2022-07-29T00:45:15;17.70;71.60
68485;DHT22;55472;50.060;21.960;2022-07-29T00:47:41;17.60;71.60
68485;DHT22;55472;50.060;21.960;2022-07-29T00:50:09;17.60;71.60
68485;DHT22;55472;50.060;21.960;2022-07-29T00:52:37;17.50;71.40
68485;DHT22;55472;50.060;21.960;2022-07-29T00:55:06;17.50;71.80
68485;DHT22;55472;50.060;21.960;2022-07-29T00:57:34;17.50;71.60
68485;DHT22;55472;50.060;21.960;2022-07-29T01:00:01;17.40;71.60
68485;DHT22;55472;50.060;21.960;2022-07-29T01:02:29;17.40;71.40
68485;DHT22;55472;50.060;21.960;2022-07-29T01:04:55;17.40;71.30
68485;DHT22;55472;50.060;21.960;2022-07-29T01:07:24;17.30;71.60
68485;DHT22;55472;50.060;21.960;2022-07-29T01:09:51;17.30;71.60
68485;DHT22;55472;50.060;21.960;2022-07-29T01:12:23;17.20;71.90
68485;DHT22;55472;50.060;21.960;2022-07-29T01:14:50;17.20;71.60
68485;DHT22;55472;50.060;21.960;2022-07-29T01:18:04;17.20;71.90
68485;DHT22;55472;50.060;21.960;2022-07-29T01:23:59;17.10;71.90
68485;DHT22;55472;50.060;21.960;2022-07-29T01:29:40;17.10;72.10
68485;DHT22;55472;50.060;21.960;2022-07-29T01:32:14;17.10;71.90
68485;DHT22;55472;50.060;21.960;2022-07-29T01:34:49;17.00;71.90
68485;DHT22;55472;50.060;21.960;2022-07-29T01:37:32;17.00;71.80
68485;DHT22;55472;50.060;21.960;2022-07-29T01:40:03;17.00;71.80
68485;DHT22;55472;50.060;21.960;2022-07-29T01:45:12;16.90;71.30
68485;DHT22;55472;50.060;21.960;2022-07-29T01:47:46;16.80;71.80
68485;DHT22;55472;50.060;21.960;2022-07-29T01:50:17;16.80;71.60
68485;DHT22;55472;50.060;21.960;2022-07-29T01:52:54;16.80;71.70
68485;DHT22;55472;50.060;21.960;2022-07-29T01:55:26;16.70;71.80
68485;DHT22;55472;50.060;21.960;2022-07-29T01:58:00;16.70;72.00
68485;DHT22;55472;50.060;21.960;2022-07-29T02:00:27;16.70;71.90
68485;DHT22;55472;50.060;21.960;2022-07-29T02:02:54;16.60;71.80
68485;DHT22;55472;50.060;21.960;2022-07-29T02:05:22;16.60;72.10
68485;DHT22;55472;50.060;21.960;2022-07-29T02:07:50;16.60;72.20
68485;DHT22;55472;50.060;21.960;2022-07-29T02:10:20;16.60;72.00
68485;DHT22;55472;50.060;21.960;2022-07-29T02:12:48;16.60;71.70
68485;DHT22;55472;50.060;21.960;2022-07-29T02:15:16;16.60;72.00
68485;DHT22;55472;50.060;21.960;2022-07-29T02:17:49;16.50;71.80
68485;DHT22;55472;50.060;21.960;2022-07-29T02:20:19;16.50;72.40
68485;DHT22;55472;50.060;21.960;2022-07-29T02:22:45;16.50;72.60
68485;DHT22;55472;50.060;21.960;2022-07-29T02:25:12;16.60;73.00
68485;DHT22;55472;50.060;21.960;2022-07-29T02:27:40;16.60;72.80
68485;DHT22;55472;50.060;21.960;2022-07-29T02:30:07;16.60;72.70
68485;DHT22;55472;50.060;21.960;2022-07-29T02:32:37;16.60;73.00
68485;DHT22;55472;50.060;21.960;2022-07-29T02:35:07;16.50;73.20
68485;DHT22;55472;50.060;21.960;2022-07-29T02:37:36;16.50;72.60
68485;DHT22;55472;50.060;21.960;2022-07-29T02:40:03;16.40;72.80
68485;DHT22;55472;50.060;21.960;2022-07-29T02:42:31;16.40;72.50
68485;DHT22;55472;50.060;21.960;2022-07-29T02:44:57;16.40;72.00
68485;DHT22;55472;50.060;21.960;2022-07-29T02:47:43;16.40;71.80
68485;DHT22;55472;50.060;21.960;2022-07-29T02:50:21;16.30;72.30
68485;DHT22;55472;50.060;21.960;2022-07-29T02:53:02;16.30;72.70
68485;DHT22;55472;50.060;21.960;2022-07-29T02:55:40;16.30;71.50
68485;DHT22;55472;50.060;21.960;2022-07-29T03:01:01;16.10;71.10
68485;DHT22;55472;50.060;21.960;2022-07-29T03:03:31;16.10;71.70
68485;DHT22;55472;50.060;21.960;2022-07-29T03:06:01;16.10;72.00
68485;DHT22;55472;50.060;21.960;2022-07-29T03:08:28;16.20;71.10
68485;DHT22;55472;50.060;21.960;2022-07-29T03:10:55;16.20;71.30
68485;DHT22;55472;50.060;21.960;2022-07-29T03:13:21;16.30;70.90
68485;DHT22;55472;50.060;21.960;2022-07-29T03:15:49;16.30;70.40
68485;DHT22;55472;50.060;21.960;2022-07-29T03:18:15;16.30;70.90
68485;DHT22;55472;50.060;21.960;2022-07-29T03:20:42;16.40;71.40
68485;DHT22;55472;50.060;21.960;2022-07-29T03:23:08;16.40;71.80
68485;DHT22;55472;50.060;21.960;2022-07-29T03:25:35;16.40;71.70
68485;DHT22;55472;50.060;21.960;2022-07-29T03:28:01;16.40;71.60
68485;DHT22;55472;50.060;21.960;2022-07-29T03:30:27;16.40;71.30
68485;DHT22;55472;50.060;21.960;2022-07-29T03:32:56;16.40;71.40
68485;DHT22;55472;50.060;21.960;2022-07-29T03:35:22;16.50;71.80
68485;DHT22;55472;50.060;21.960;2022-07-29T03:37:48;16.50;71.90
68485;DHT22;55472;50.060;21.960;2022-07-29T03:40:18;16.50;71.70
68485;DHT22;55472;50.060;21.960;2022-07-29T03:42:46;16.50;69.90
68485;DHT22;55472;50.060;21.960;2022-07-29T03:45:17;16.50;70.60
68485;DHT22;55472;50.060;21.960;2022-07-29T03:47:48;16.50;69.70
68485;DHT22;55472;50.060;21.960;2022-07-29T03:50:17;16.50;70.00
68485;DHT22;55472;50.060;21.960;2022-07-29T03:52:45;16.50;69.90
68485;DHT22;55472;50.060;21.960;2022-07-29T03:55:11;16.50;70.50
68485;DHT22;55472;50.060;21.960;2022-07-29T03:57:38;16.50;70.00
68485;DHT22;55472;50.060;21.960;2022-07-29T04:00:06;16.50;70.30
68485;DHT22;55472;50.060;21.960;2022-07-29T04:02:33;16.60;69.60
68485;DHT22;55472;50.060;21.960;2022-07-29T04:05:00;16.60;69.60
68485;DHT22;55472;50.060;21.960;2022-07-29T04:07:26;16.50;69.10
68485;DHT22;55472;50.060;21.960;2022-07-29T04:09:52;16.50;69.30
68485;DHT22;55472;50.060;21.960;2022-07-29T04:12:18;16.60;69.60
68485;DHT22;55472;50.060;21.960;2022-07-29T04:14:44;16.70;69.20
68485;DHT22;55472;50.060;21.960;2022-07-29T04:17:10;16.80;68.80
68485;DHT22;55472;50.060;21.960;2022-07-29T04:19:36;16.80;68.60
68485;DHT22;55472;50.060;21.960;2022-07-29T04:22:02;16.90;68.80
68485;DHT22;55472;50.060;21.960;2022-07-29T04:24:28;17.00;68.70
68485;DHT22;55472;50.060;21.960;2022-07-29T04:26:54;17.00;67.90
68485;DHT22;55472;50.060;21.960;2022-07-29T04:29:20;17.00;67.90
68485;DHT22;55472;50.060;21.960;2022-07-29T04:31:46;17.00;68.10
68485;DHT22;55472;50.060;21.960;2022-07-29T04:34:12;17.10;67.60
68485;DHT22;55472;50.060;21.960;2022-07-29T04:36:38;17.10;67.10
68485;DHT22;55472;50.060;21.960;2022-07-29T04:39:04;17.10;67.20
68485;DHT22;55472;50.060;21.960;2022-07-29T04:41:31;17.10;66.70
68485;DHT22;55472;50.060;21.960;2022-07-29T04:43:57;17.10;67.20
68485;DHT22;55472;50.060;21.960;2022-07-29T04:46:22;17.20;66.80
68485;DHT22;55472;50.060;21.960;2022-07-29T04:48:49;17.20;67.20
68485;DHT22;55472;50.060;21.960;2022-07-29T04:51:16;17.30;66.50
68485;DHT22;55472;50.060;21.960;2022-07-29T04:53:42;17.30;66.40
68485;DHT22;55472;50.060;21.960;2022-07-29T04:56:08;17.40;66.30
68485;DHT22;55472;50.060;21.960;2022-07-29T04:58:35;17.50;66.00
68485;DHT22;55472;50.060;21.960;2022-07-29T05:01:01;17.60;65.20
68485;DHT22;55472;50.060;21.960;2022-07-29T05:03:27;17.70;65.80
68485;DHT22;55472;50.060;21.960;2022-07-29T05:05:53;17.80;65.80
68485;DHT22;55472;50.060;21.960;2022-07-29T05:08:19;18.00;64.00
68485;DHT22;55472;50.060;21.960;2022-07-29T05:10:46;18.10;65.20
68485;DHT22;55472;50.060;21.960;2022-07-29T05:13:12;18.20;64.90
68485;DHT22;55472;50.060;21.960;2022-07-29T05:15:38;18.30;64.60
68485;DHT22;55472;50.060;21.960;2022-07-29T05:18:04;18.30;64.20
68485;DHT22;55472;50.060;21.960;2022-07-29T05:20:30;18.30;63.80
68485;DHT22;55472;50.060;21.960;2022-07-29T05:22:57;18.40;64.00
68485;DHT22;55472;50.060;21.960;2022-07-29T05:25:25;18.50;63.90
68485;DHT22;55472;50.060;21.960;2022-07-29T05:27:52;18.50;64.00
68485;DHT22;55472;50.060;21.960;2022-07-29T05:30:19;18.60;64.60
68485;DHT22;55472;50.060;21.960;2022-07-29T05:32:45;18.70;63.50
68485;DHT22;55472;50.060;21.960;2022-07-29T05:35:12;18.70;63.00
68485;DHT22;55472;50.060;21.960;2022-07-29T05:37:39;18.80;63.60
68485;DHT22;55472;50.060;21.960;2022-07-29T05:40:05;18.90;64.30
68485;DHT22;55472;50.060;21.960;2022-07-29T05:42:32;19.00;64.00
68485;DHT22;55472;50.060;21.960;2022-07-29T05:44:59;19.10;63.70
68485;DHT22;55472;50.060;21.960;2022-07-29T05:47:26;19.20;62.30
68485;DHT22;55472;50.060;21.960;2022-07-29T05:49:52;19.10;61.80
68485;DHT22;55472;50.060;21.960;2022-07-29T05:52:19;19.20;62.10
68485;DHT22;55472;50.060;21.960;2022-07-29T05:54:46;19.30;62.60
68485;DHT22;55472;50.060;21.960;2022-07-29T05:57:30;19.30;61.80
68485;DHT22;55472;50.060;21.960;2022-07-29T05:59:56;19.40;61.00
68485;DHT22;55472;50.060;21.960;2022-07-29T06:02:22;19.50;61.20
68485;DHT22;55472;50.060;21.960;2022-07-29T06:04:48;19.60;59.80
68485;DHT22;55472;50.060;21.960;2022-07-29T06:07:15;19.70;59.70
68485;DHT22;55472;50.060;21.960;2022-07-29T06:09:42;19.80;59.30
68485;DHT22;55472;50.060;21.960;2022-07-29T06:12:08;19.90;57.90
68485;DHT22;55472;50.060;21.960;2022-07-29T06:14:35;19.90;58.90
68485;DHT22;55472;50.060;21.960;2022-07-29T06:17:02;19.90;57.80
68485;DHT22;55472;50.060;21.960;2022-07-29T06:19:28;19.80;57.70
68485;DHT22;55472;50.060;21.960;2022-07-29T06:21:54;19.90;59.30
68485;DHT22;55472;50.060;21.960;2022-07-29T06:24:20;20.10;57.10
68485;DHT22;55472;50.060;21.960;2022-07-29T06:26:46;20.20;56.90
68485;DHT22;55472;50.060;21.960;2022-07-29T06:29:12;20.40;56.70
68485;DHT22;55472;50.060;21.960;2022-07-29T06:31:38;20.50;58.10
68485;DHT22;55472;50.060;21.960;2022-07-29T06:34:04;20.70;56.80
68485;DHT22;55472;50.060;21.960;2022-07-29T06:36:30;20.90;55.90
68485;DHT22;55472;50.060;21.960;2022-07-29T06:38:56;21.00;55.80
68485;DHT22;55472;50.060;21.960;2022-07-29T06:41:22;21.10;55.50
68485;DHT22;55472;50.060;21.960;2022-07-29T06:43:49;21.10;55.00
68485;DHT22;55472;50.060;21.960;2022-07-29T06:46:17;21.10;55.20
68485;DHT22;55472;50.060;21.960;2022-07-29T06:48:46;21.20;54.00
68485;DHT22;55472;50.060;21.960;2022-07-29T06:51:13;21.20;54.90
68485;DHT22;55472;50.060;21.960;2022-07-29T06:53:39;21.30;55.10
68485;DHT22;55472;50.060;21.960;2022-07-29T06:56:06;21.50;53.90
68485;DHT22;55472;50.060;21.960;2022-07-29T06:58:35;21.60;54.60
68485;DHT22;55472;50.060;21.960;2022-07-29T07:01:04;21.80;53.30
68485;DHT22;55472;50.060;21.960;2022-07-29T07:03:31;21.90;53.60
68485;DHT22;55472;50.060;21.960;2022-07-29T07:05:57;22.00;53.90
68485;DHT22;55472;50.060;21.960;2022-07-29T07:08:23;22.10;54.30
68485;DHT22;55472;50.060;21.960;2022-07-29T07:10:50;22.30;54.00
68485;DHT22;55472;50.060;21.960;2022-07-29T07:13:17;22.30;53.90
68485;DHT22;55472;50.060;21.960;2022-07-29T07:15:44;22.30;54.40
68485;DHT22;55472;50.060;21.960;2022-07-29T07:18:10;22.40;54.40
68485;DHT22;55472;50.060;21.960;2022-07-29T07:20:37;22.60;53.10
68485;DHT22;55472;50.060;21.960;2022-07-29T07:23:03;22.70;53.10
68485;DHT22;55472;50.060;21.960;2022-07-29T07:25:28;22.70;52.60
68485;DHT22;55472;50.060;21.960;2022-07-29T07:27:55;22.80;52.30
68485;DHT22;55472;50.060;21.960;2022-07-29T07:30:21;22.80;52.30
68485;DHT22;55472;50.060;21.960;2022-07-29T07:32:46;23.00;52.80
68485;DHT22;55472;50.060;21.960;2022-07-29T07:35:12;23.10;53.20
68485;DHT22;55472;50.060;21.960;2022-07-29T07:37:39;23.30;53.00
68485;DHT22;55472;50.060;21.960;2022-07-29T07:40:10;23.40;52.70
68485;DHT22;55472;50.060;21.960;2022-07-29T07:42:40;23.50;53.50
68485;DHT22;55472;50.060;21.960;2022-07-29T07:45:07;23.60;52.70
68485;DHT22;55472;50.060;21.960;2022-07-29T07:47:38;23.80;52.40
68485;DHT22;55472;50.060;21.960;2022-07-29T07:50:07;23.90;52.20
68485;DHT22;55472;50.060;21.960;2022-07-29T07:52:33;23.90;51.80
68485;DHT22;55472;50.060;21.960;2022-07-29T07:54:59;24.00;52.10
68485;DHT22;55472;50.060;21.960;2022-07-29T07:57:26;24.10;52.20
68485;DHT22;55472;50.060;21.960;2022-07-29T07:59:52;24.30;52.40
68485;DHT22;55472;50.060;21.960;2022-07-29T08:02:18;24.50;52.70
68485;DHT22;55472;50.060;21.960;2022-07-29T08:04:44;24.70;50.40
68485;DHT22;55472;50.060;21.960;2022-07-29T08:07:10;24.80;50.90
68485;DHT22;55472;50.060;21.960;2022-07-29T08:09:36;25.00;50.40
68485;DHT22;55472;50.060;21.960;2022-07-29T08:12:02;25.20;49.80
68485;DHT22;55472;50.060;21.960;2022-07-29T08:14:30;25.40;49.80
68485;DHT22;55472;50.060;21.960;2022-07-29T08:16:56;25.60;49.50
68485;DHT22;55472;50.060;21.960;2022-07-29T08:19:22;25.90;49.60
68485;DHT22;55472;50.060;21.960;2022-07-29T08:21:48;26.20;48.70
68485;DHT22;55472;50.060;21.960;2022-07-29T08:24:14;26.60;48.90
68485;DHT22;55472;50.060;21.960;2022-07-29T08:27:15;26.90;47.10
68485;DHT22;55472;50.060;21.960;2022-07-29T08:29:41;26.90;46.30
68485;DHT22;55472;50.060;21.960;2022-07-29T08:32:07;26.90;47.00
68485;DHT22;55472;50.060;21.960;2022-07-29T08:34:36;26.90;47.10
68485;DHT22;55472;50.060;21.960;2022-07-29T08:37:01;26.90;47.10
68485;DHT22;55472;50.060;21.960;2022-07-29T08:39:27;27.00;46.50
68485;DHT22;55472;50.060;21.960;2022-07-29T08:41:54;27.00;47.00
68485;DHT22;55472;50.060;21.960;2022-07-29T08:44:20;27.30;46.50
68485;DHT22;55472;50.060;21.960;2022-07-29T08:46:48;27.70;45.20
68485;DHT22;55472;50.060;21.960;2022-07-29T08:49:15;28.00;45.00
68485;DHT22;55472;50.060;21.960;2022-07-29T08:51:43;28.10;44.80
68485;DHT22;55472;50.060;21.960;2022-07-29T08:54:09;28.40;45.50
68485;DHT22;55472;50.060;21.960;2022-07-29T08:56:36;28.50;43.70
68485;DHT22;55472;50.060;21.960;2022-07-29T08:59:04;28.90;44.20
68485;DHT22;55472;50.060;21.960;2022-07-29T09:01:32;29.10;43.20
68485;DHT22;55472;50.060;21.960;2022-07-29T09:04:03;28.80;42.80
68485;DHT22;55472;50.060;21.960;2022-07-29T09:06:32;28.90;43.00
68485;DHT22;55472;50.060;21.960;2022-07-29T09:09:00;29.00;43.90
68485;DHT22;55472;50.060;21.960;2022-07-29T09:11:27;30.10;43.30
68485;DHT22;55472;50.060;21.960;2022-07-29T09:13:53;31.30;40.40
68485;DHT22;55472;50.060;21.960;2022-07-29T09:16:19;31.50;39.50
68485;DHT22;55472;50.060;21.960;2022-07-29T09:18:46;32.10;38.60
68485;DHT22;55472;50.060;21.960;2022-07-29T09:21:14;32.70;38.60
68485;DHT22;55472;50.060;21.960;2022-07-29T09:24:10;33.20;38.00
68485;DHT22;55472;50.060;21.960;2022-07-29T09:26:43;34.80;36.00
68485;DHT22;55472;50.060;21.960;2022-07-29T09:29:16;35.60;34.50
68485;DHT22;55472;50.060;21.960;2022-07-29T09:31:47;36.10;33.50
68485;DHT22;55472;50.060;21.960;2022-07-29T09:34:26;37.10;32.00
68485;DHT22;55472;50.060;21.960;2022-07-29T09:36:57;38.10;32.10
68485;DHT22;55472;50.060;21.960;2022-07-29T09:39:34;37.80;31.30
68485;DHT22;55472;50.060;21.960;2022-07-29T09:42:04;37.50;32.10
68485;DHT22;55472;50.060;21.960;2022-07-29T09:44:45;36.90;32.70
68485;DHT22;55472;50.060;21.960;2022-07-29T09:47:14;36.00;34.00
68485;DHT22;55472;50.060;21.960;2022-07-29T09:49:56;35.60;34.90
68485;DHT22;55472;50.060;21.960;2022-07-29T09:52:27;34.50;35.30
68485;DHT22;55472;50.060;21.960;2022-07-29T09:55:05;33.30;37.30
68485;DHT22;55472;50.060;21.960;2022-07-29T09:57:31;32.60;38.30
68485;DHT22;55472;50.060;21.960;2022-07-29T10:00:05;31.20;39.90
68485;DHT22;55472;50.060;21.960;2022-07-29T10:02:36;31.40;40.50
68485;DHT22;55472;50.060;21.960;2022-07-29T10:05:05;31.80;40.60
68485;DHT22;55472;50.060;21.960;2022-07-29T10:07:50;32.20;39.90
68485;DHT22;55472;50.060;21.960;2022-07-29T10:10:28;32.70;39.20
68485;DHT22;55472;50.060;21.960;2022-07-29T10:12:58;33.10;38.90
68485;DHT22;55472;50.060;21.960;2022-07-29T10:15:27;33.50;38.50
68485;DHT22;55472;50.060;21.960;2022-07-29T10:17:56;33.60;38.30
68485;DHT22;55472;50.060;21.960;2022-07-29T10:20:22;32.90;37.80
68485;DHT22;55472;50.060;21.960;2022-07-29T10:22:50;31.50;40.30
68485;DHT22;55472;50.060;21.960;2022-07-29T10:25:18;31.10;41.40
68485;DHT22;55472;50.060;21.960;2022-07-29T10:27:46;31.10;41.60
68485;DHT22;55472;50.060;21.960;2022-07-29T10:30:14;31.20;41.50
68485;DHT22;55472;50.060;21.960;2022-07-29T10:36:27;30.80;43.40
68485;DHT22;55472;50.060;21.960;2022-07-29T10:42:41;30.40;43.60
68485;DHT22;55472;50.060;21.960;2022-07-29T10:44:50;30.70;43.10
68485;DHT22;55472;50.060;21.960;2022-07-29T10:47:25;31.30;42.50
68485;DHT22;55472;50.060;21.960;2022-07-29T10:49:59;30.70;43.00
68485;DHT22;55472;50.060;21.960;2022-07-29T10:55:38;30.50;42.50
68485;DHT22;55472;50.060;21.960;2022-07-29T10:58:19;30.90;43.30
68485;DHT22;55472;50.060;21.960;2022-07-29T11:00:48;30.80;42.20
68485;DHT22;55472;50.060;21.960;2022-07-29T11:06:07;30.60;42.80
68485;DHT22;55472;50.060;21.960;2022-07-29T11:08:33;31.00;42.60
68485;DHT22;55472;50.060;21.960;2022-07-29T11:13:53;30.10;44.20
68485;DHT22;55472;50.060;21.960;2022-07-29T11:16:22;29.60;43.80
68485;DHT22;55472;50.060;21.960;2022-07-29T11:21:37;29.10;45.70
68485;DHT22;55472;50.060;21.960;2022-07-29T11:24:14;29.30;44.90
68485;DHT22;55472;50.060;21.960;2022-07-29T11:29:55;29.30;45.70
68485;DHT22;55472;50.060;21.960;2022-07-29T11:32:24;29.40;45.10
68485;DHT22;55472;50.060;21.960;2022-07-29T11:37:46;29.60;44.80
68485;DHT22;55472;50.060;21.960;2022-07-29T11:40:14;29.60;45.20
68485;DHT22;55472;50.060;21.960;2022-07-29T11:42:42;29.60;44.90
68485;DHT22;55472;50.060;21.960;2022-07-29T11:45:18;29.80;44.50
68485;DHT22;55472;50.060;21.960;2022-07-29T11:50:15;29.80;45.20
68485;DHT22;55472;50.060;21.960;2022-07-29T11:52:43;29.90;45.40
68485;DHT22;55472;50.060;21.960;2022-07-29T11:55:15;30.00;45.40
68485;DHT22;55472;50.060;21.960;2022-07-29T12:00:34;30.10;44.30
68485;DHT22;55472;50.060;21.960;2022-07-29T12:03:05;30.20;45.00
68485;DHT22;55472;50.060;21.960;2022-07-29T12:05:45;30.20;44.80
68485;DHT22;55472;50.060;21.960;2022-07-29T12:08:29;30.20;45.00
68485;DHT22;55472;50.060;21.960;2022-07-29T12:10:55;30.30;44.90
68485;DHT22;55472;50.060;21.960;2022-07-29T12:13:21;30.40;44.70
68485;DHT22;55472;50.060;21.960;2022-07-29T12:15:55;30.40;44.60
68485;DHT22;55472;50.060;21.960;2022-07-29T12:18:26;30.50;44.90
68485;DHT22;55472;50.060;21.960;2022-07-29T12:21:02;30.50;44.80
68485;DHT22;55472;50.060;21.960;2022-07-29T12:23:30;30.70;44.90
68485;DHT22;55472;50.060;21.960;2022-07-29T12:26:04;30.50;44.80
68485;DHT22;55472;50.060;21.960;2022-07-29T12:28:37;30.50;44.90
68485;DHT22;55472;50.060;21.960;2022-07-29T12:31:04;30.40;44.60
68485;DHT22;55472;50.060;21.960;2022-07-29T12:33:30;30.10;44.30
68485;DHT22;55472;50.060;21.960;2022-07-29T12:36:01;29.80;45.80
68485;DHT22;55472;50.060;21.960;2022-07-29T12:38:27;29.90;45.70
68485;DHT22;55472;50.060;21.960;2022-07-29T12:40:57;29.80;45.90
68485;DHT22;55472;50.060;21.960;2022-07-29T12:43:24;29.90;45.70
68485;DHT22;55472;50.060;21.960;2022-07-29T12:45:52;29.90;45.70
68485;DHT22;55472;50.060;21.960;2022-07-29T12:51:01;29.90;45.80
68485;DHT22;55472;50.060;21.960;2022-07-29T12:53:29;30.00;46.00
68485;DHT22;55472;50.060;21.960;2022-07-29T12:55:56;30.10;44.60
68485;DHT22;55472;50.060;21.960;2022-07-29T12:58:37;29.90;44.40
68485;DHT22;55472;50.060;21.960;2022-07-29T13:01:12;29.80;44.90
68485;DHT22;55472;50.060;21.960;2022-07-29T13:03:59;29.80;46.00
68485;DHT22;55472;50.060;21.960;2022-07-29T13:06:42;29.80;44.40
68485;DHT22;55472;50.060;21.960;2022-07-29T13:09:19;29.70;45.80
68485;DHT22;55472;50.060;21.960;2022-07-29T13:11:50;29.70;45.10
68485;DHT22;55472;50.060;21.960;2022-07-29T13:17:13;29.80;44.60
68485;DHT22;55472;50.060;21.960;2022-07-29T13:19:41;29.80;45.80
68485;DHT22;55472;50.060;21.960;2022-07-29T13:22:10;29.90;45.70
68485;DHT22;55472;50.060;21.960;2022-07-29T13:24:48;29.90;44.50
68485;DHT22;55472;50.060;21.960;2022-07-29T13:27:21;29.70;44.30
68485;DHT22;55472;50.060;21.960;2022-07-29T13:29:48;29.60;45.00
68485;DHT22;55472;50.060;21.960;2022-07-29T13:32:16;29.50;46.30
68485;DHT22;55472;50.060;21.960;2022-07-29T13:34:42;29.60;46.20
68485;DHT22;55472;50.060;21.960;2022-07-29T13:37:09;29.70;46.00
68485;DHT22;55472;50.060;21.960;2022-07-29T13:39:35;29.70;46.40
68485;DHT22;55472;50.060;21.960;2022-07-29T13:42:01;29.80;46.70
68485;DHT22;55472;50.060;21.960;2022-07-29T13:44:27;29.80;45.10
68485;DHT22;55472;50.060;21.960;2022-07-29T13:46:52;29.80;45.50
68485;DHT22;55472;50.060;21.960;2022-07-29T13:49:19;29.50;44.50
68485;DHT22;55472;50.060;21.960;2022-07-29T13:51:45;29.20;46.10
68485;DHT22;55472;50.060;21.960;2022-07-29T13:54:11;29.20;45.80
68485;DHT22;55472;50.060;21.960;2022-07-29T13:56:37;29.30;46.10
68485;DHT22;55472;50.060;21.960;2022-07-29T13:59:03;29.10;45.70
68485;DHT22;55472;50.060;21.960;2022-07-29T14:01:29;29.10;45.10
68485;DHT22;55472;50.060;21.960;2022-07-29T14:03:56;29.20;45.60
68485;DHT22;55472;50.060;21.960;2022-07-29T14:06:22;29.20;44.50
68485;DHT22;55472;50.060;21.960;2022-07-29T14:08:48;29.20;45.50
68485;DHT22;55472;50.060;21.960;2022-07-29T14:11:14;29.30;45.30
68485;DHT22;55472;50.060;21.960;2022-07-29T14:13:39;29.10;44.60
68485;DHT22;55472;50.060;21.960;2022-07-29T14:16:05;29.10;45.50
68485;DHT22;55472;50.060;21.960;2022-07-29T14:18:33;29.20;45.60
68485;DHT22;55472;50.060;21.960;2022-07-29T14:20:59;29.30;45.00
68485;DHT22;55472;50.060;21.960;2022-07-29T14:23:25;29.30;45.00
68485;DHT22;55472;50.060;21.960;2022-07-29T14:25:51;29.40;45.50
68485;DHT22;55472;50.060;21.960;2022-07-29T14:28:17;29.40;46.20
68485;DHT22;55472;50.060;21.960;2022-07-29T14:30:43;29.40;46.40
68485;DHT22;55472;50.060;21.960;2022-07-29T14:33:09;29.50;46.30
68485;DHT22;55472;50.060;21.960;2022-07-29T14:35:35;29.50;47.00
68485;DHT22;55472;50.060;21.960;2022-07-29T14:38:02;29.50;46.20
68485;DHT22;55472;50.060;21.960;2022-07-29T14:40:28;29.50;46.10
68485;DHT22;55472;50.060;21.960;2022-07-29T14:42:54;29.60;46.80
68485;DHT22;55472;50.060;21.960;2022-07-29T14:45:20;29.50;46.20
68485;DHT22;55472;50.060;21.960;2022-07-29T14:47:46;29.50;46.00
68485;DHT22;55472;50.060;21.960;2022-07-29T14:50:12;29.50;46.30
68485;DHT22;55472;50.060;21.960;2022-07-29T14:52:39;29.50;47.10
68485;DHT22;55472;50.060;21.960;2022-07-29T14:55:05;29.50;47.40
68485;DHT22;55472;50.060;21.960;2022-07-29T14:57:31;29.60;46.40
68485;DHT22;55472;50.060;21.960;2022-07-29T14:59:57;29.60;46.90
68485;DHT22;55472;50.060;21.960;2022-07-29T15:02:23;29.60;46.90
68485;DHT22;55472;50.060;21.960;2022-07-29T15:04:49;29.50;46.30
68485;DHT22;55472;50.060;21.960;2022-07-29T15:07:15;29.20;46.30
68485;DHT22;55472;50.060;21.960;2022-07-29T15:09:42;29.20;46.90
68485;DHT22;55472;50.060;21.960;2022-07-29T15:12:11;29.00;46.90
68485;DHT22;55472;50.060;21.960;2022-07-29T15:14:37;28.80;47.20
68485;DHT22;55472;50.060;21.960;2022-07-29T15:17:03;28.70;47.80
68485;DHT22;55472;50.060;21.960;2022-07-29T15:19:29;28.70;48.00
68485;DHT22;55472;50.060;21.960;2022-07-29T15:21:55;28.60;48.90
68485;DHT22;55472;50.060;21.960;2022-07-29T15:24:21;28.60;48.80
68485;DHT22;55472;50.060;21.960;2022-07-29T15:26:47;28.70;47.50
68485;DHT22;55472;50.060;21.960;2022-07-29T15:29:13;28.60;48.40
68485;DHT22;55472;50.060;21.960;2022-07-29T15:31:40;28.60;48.30
68485;DHT22;55472;50.060;21.960;2022-07-29T15:34:06;28.60;48.10
68485;DHT22;55472;50.060;21.960;2022-07-29T15:36:32;28.60;47.90
68485;DHT22;55472;50.060;21.960;2022-07-29T15:38:58;28.50;47.90
68485;DHT22;55472;50.060;21.960;2022-07-29T15:41:24;28.40;48.20
68485;DHT22;55472;50.060;21.960;2022-07-29T15:43:50;28.40;47.80
68485;DHT22;55472;50.060;21.960;2022-07-29T15:46:18;28.30;48.00
68485;DHT22;55472;50.060;21.960;2022-07-29T15:49:04;28.30;48.40
68485;DHT22;55472;50.060;21.960;2022-07-29T15:51:31;28.30;48.70
68485;DHT22;55472;50.060;21.960;2022-07-29T15:54:00;28.30;49.00
68485;DHT22;55472;50.060;21.960;2022-07-29T15:56:26;28.30;49.00
68485;DHT22;55472;50.060;21.960;2022-07-29T15:58:53;28.20;48.90
68485;DHT22;55472;50.060;21.960;2022-07-29T16:01:18;28.20;49.00
68485;DHT22;55472;50.060;21.960;2022-07-29T16:03:44;28.10;50.10
68485;DHT22;55472;50.060;21.960;2022-07-29T16:06:10;28.10;49.70
68485;DHT22;55472;50.060;21.960;2022-07-29T16:08:36;28.00;49.00
68485;DHT22;55472;50.060;21.960;2022-07-29T16:11:02;27.90;49.80